KPVD/PVD METAR and TAF weather

Enter ICAO airport designator
Station Type Date Time Source
KPVD METAR 2021/02/27 20:51 UTC NOAA

KPVD 272051Z 22007KT 1SM R05/5000VP6000FT -RA BR OVC007 11/10 A2995 RMK AO2 SFC VIS 1 1/2 CIG 005V010 SLP143 P0007 60036 T01060100 56035


Station Type Date Time Source
KPVD Decoded METAR 2021/02/27 20:51 UTC NOAA

PROVIDENCE GREEN STATE AIRPORT , RI, United States (KPVD) 41-44N 071-26W 16M
Feb 27, 2021 - 03:51 PM EST / 2021.02.27 2051 UTC
Wind: from the SW (220 degrees) at 8 MPH (7 KT):0
Visibility: 1 mile(s):0
Sky conditions: overcast
Weather: light rain; mist
Precipitation last hour: 0.07 inches
Temperature: 51.1 F (10.6 C)
Dew Point: 50.0 F (10.0 C)
Relative Humidity: 96%
Pressure (altimeter): 29.95 in. Hg (1014 hPa)
Pressure tendency: 0.10 inches (3.5 hPa) lower than three hours ago
ob: KPVD 272051Z 22007KT 1SM R05/5000VP6000FT -RA BR OVC007 11/10 A2995 RMK AO2 SFC VIS 1 1/2 CIG 005V010 SLP143 P0007 60036 T01060100 56035
cycle: 21

Station Type Date Time Source
KPVD TAF 2021/02/27 18:30 UTC NOAA

TAF KPVD 271729Z 2718/2818 16013G25KT 2SM RA BR OVC008
FM272000 18011G24KT 1 1/2SM -RA BR OVC003
FM272300 23007KT 3SM BR VCSH BKN008
FM280000 25007KT P6SM BKN003
FM280200 28006KT P6SM SCT250

Example: see airport list